Portada
METAR-TAF:

METAR-TAF

Aeropuertos :

El Goléa, Argelia

latitud: 30-34N, longitud: 002-52E, altitud: 397 m

Observación

El informe se hizo hace 46 minutos, a las 11:00 UTC
Viento 10 kt del este-noreste
Temperatura 18°C
Humedad 26%
Presión 1033 hPa
Visibilidad 10 km o más
sin nubes por debajo de 1500 m y sin presencia de cumulonimbus.

METAR: DAUE 231100Z 07010KT CAVOK 18/M02 Q1033

Hora: 12:46 (11:46 UTC)


TAF: falta

Observaciones y pronósticos meteorológicos de más de 4000 aeropuertos (mensajes METAR y TAF).

Los puntos amarillos y rojos representan las estaciones disponibles.

Ponga el ratón en el punto deseado para ver el nombre de la estación.

Haga clic para ver las observaciones y los pronósticos meteorológicos.

Para cambiar el mapa : haga clic en los botones verdes con una cruz de color negro para hacer un zoom, en el botón verde con un guión para alejar o en las flechas verdes para mapas adyacentes.


METAR-TAF: